Paganini — V2CL8 — position and weather

sailwx.info

Track history (hours):
 
Tides and Currents Weather Stations Pressure Air Temp Water Temp Dewpoint Dewpoint Depression Visibility Wind Speed Wind Dir Waves Ship Positions

Paganini

Last reported at 2016-May-24 19:31 UTC. Time now 2016-May-24 19:34 UTC.
Position N 53°53' E 009°08'.

Length 90 m; draft 4.2 m.

Type: Cargo ship. MMSI: 305040000.

Date/timePositionNaut miles runAvg speedWind from/ knotsBaromVisibWave heightAir tempDewpointWater temp
2016-May-24 19:31N 53°53' E 009°08'0 0.0
2016-May-24 18:31N 53°53' E 009°08'0 0.0
2016-May-24 17:31N 53°53' E 009°08'0 0.0
2016-May-24 16:31N 53°53' E 009°09'0 0.1
2016-May-24 15:31N 53°53' E 009°09'0 0.0
2016-May-24 14:31N 53°53' E 009°09'0 0.0
2016-May-24 13:31N 53°53' E 009°09'0 0.0
2016-May-24 12:31N 53°53' E 009°09'0 0.0
2016-May-24 11:31N 53°53' E 009°09'0 0.1
2016-May-24 10:31N 53°53' E 009°09'0 0.1
2016-May-24 09:31N 53°53' E 009°08'0 0.0
2016-May-24 08:31N 53°53' E 009°08'0 0.0
2016-May-24 07:28N 53°53' E 009°08'0 0.0
2016-May-24 06:31N 53°53' E 009°09'0 0.0
2016-May-24 05:31N 53°53' E 009°08'0 0.1
2016-May-24 04:31N 53°53' E 009°09'0 0.1
2016-May-24 03:31N 53°53' E 009°09'0 0.0
2016-May-24 02:34N 53°53' E 009°09'10 9.7
2016-May-24 01:33N 53°50' E 008°53'1312.7
2016-May-24 00:34N 53°58' E 008°35'1312.5
2016-May-23 23:33N 53°60' E 008°14'1211.7
2016-May-23 22:33N 53°57' E 007°55'1212.3
2016-May-23 21:34N 53°55' E 007°34'1312.9
2016-May-23 20:33N 53°52' E 007°13'1312.5
2016-May-23 19:33N 53°49' E 006°53'1212.0
2016-May-23 18:33N 53°46' E 006°33'1111.2
2016-May-23 17:33N 53°43' E 006°15'1110.8
2016-May-23 16:33N 53°39' E 005°58'1010.5
2016-May-23 15:34N 53°36' E 005°41'1010.3
2016-May-23 14:33N 53°33' E 005°24'1010.3
2016-May-23 13:33N 53°30' E 005°08'32 9.8
2016-May-23 10:21N 53°08' E 004°29'910.9
2016-May-23 09:29N 52°60' E 004°22'1210.8
2016-May-23 08:25N 52°50' E 004°12'10212.7
2016-May-23 00:22N 51°34' E 002°21'1012.8
2016-May-22 23:34N 51°25' E 002°12'1212.2
2016-May-22 22:34N 51°14' E 002°04'1111.2
2016-May-22 21:33N 51°08' E 001°49'1010.0
2016-May-22 20:33N 51°00' E 001°38'9 9.3
2016-May-22 19:33N 50°53' E 001°29'9 9.5
2016-May-22 18:33N 50°44' E 001°23'1110.1
2016-May-22 17:27N 50°36' E 001°12'3210.7
2016-May-22 14:25N 50°23' E 000°26'1011.0
2016-May-22 13:33N 50°20' E 000°12'1111.3
2016-May-22 12:34N 50°17' W 000°05'1211.8
2016-May-22 11:33N 50°14' W 000°23'1613.0
2016-May-22 10:21N 50°10' W 000°46'8414.5
2016-May-22 04:33N 49°47' W 002°52'1212.1
2016-May-22 03:33N 49°41' W 003°08'9110.8
2016-May-21 19:12N 48°56' W 005°09'812.0
2016-May-21 18:33N 48°52' W 005°19'  
2016-May-19 14:07N 39°25' W 009°49'611.1
2016-May-19 13:33N 39°19' W 009°50'1111.2
2016-May-19 12:33N 39°08' W 009°50'1111.2
2016-May-19 11:33N 38°57' W 009°50'1111.2
2016-May-19 10:33N 38°45' W 009°50'1110.9
2016-May-19 09:33N 38°35' W 009°47'1110.6
2016-May-19 08:33N 38°24' W 009°45'1010.3
2016-May-19 07:33N 38°14' W 009°42'10 9.9
2016-May-19 06:33N 38°05' W 009°39'19 9.4
2016-May-19 04:31N 37°46' W 009°33'9 8.7
2016-May-19 03:30N 37°38' W 009°31'55 7.9
2016-May-18 20:29N 36°45' W 009°08'2010.0
2016-May-18 18:27N 36°40' W 008°44'910.7
2016-May-18 17:33N 36°37' W 008°33'1111.1
2016-May-18 16:33N 36°34' W 008°19'1010.0
2016-May-18 15:33N 36°31' W 008°07'9 9.2
2016-May-18 14:33N 36°29' W 007°56'10 9.2
2016-May-18 13:27N 36°26' W 007°44'110 9.2
2016-May-18 01:32N 35°59' W 005°33'8 8.5
2016-May-18 00:33N 36°04' W 005°24'7 0.3
2016-May-17 04:28N 36°11' W 005°25'0 0.0
2016-May-16 21:22N 36°11' W 005°25'7 1.8
2016-May-16 17:33N 36°04' W 005°24'262 7.7
2016-May-15 07:21N 38°25' W 010°02'  
Track history (hours):
 
Tides and Currents Weather Stations Pressure Air Temp Water Temp Dewpoint Dewpoint Depression Visibility Wind Speed Wind Dir Waves Ship Positions

Paganini

Last reported at 2016-May-24 19:31 UTC. Time now 2016-May-24 19:34 UTC.
Position N 53°53' E 009°08'.

Length 90 m; draft 4.2 m.

Type: Cargo ship. MMSI: 305040000.

Date/timePositionNaut miles runAvg speedWind from/ knotsBaromVisibWave heightAir tempDewpointWater temp
2016-May-24 19:31N 53°53' E 009°08'0 0.0
2016-May-24 18:31N 53°53' E 009°08'0 0.0
2016-May-24 17:31N 53°53' E 009°08'0 0.0
2016-May-24 16:31N 53°53' E 009°09'0 0.1
2016-May-24 15:31N 53°53' E 009°09'0 0.0
2016-May-24 14:31N 53°53' E 009°09'0 0.0
2016-May-24 13:31N 53°53' E 009°09'0 0.0
2016-May-24 12:31N 53°53' E 009°09'0 0.0
2016-May-24 11:31N 53°53' E 009°09'0 0.1
2016-May-24 10:31N 53°53' E 009°09'0 0.1
2016-May-24 09:31N 53°53' E 009°08'0 0.0
2016-May-24 08:31N 53°53' E 009°08'0 0.0
2016-May-24 07:28N 53°53' E 009°08'0 0.0
2016-May-24 06:31N 53°53' E 009°09'0 0.0
2016-May-24 05:31N 53°53' E 009°08'0 0.1
2016-May-24 04:31N 53°53' E 009°09'0 0.1
2016-May-24 03:31N 53°53' E 009°09'0 0.0
2016-May-24 02:34N 53°53' E 009°09'10 9.7
2016-May-24 01:33N 53°50' E 008°53'1312.7
2016-May-24 00:34N 53°58' E 008°35'1312.5
2016-May-23 23:33N 53°60' E 008°14'1211.7
2016-May-23 22:33N 53°57' E 007°55'1212.3
2016-May-23 21:34N 53°55' E 007°34'1312.9
2016-May-23 20:33N 53°52' E 007°13'1312.5
2016-May-23 19:33N 53°49' E 006°53'1212.0
2016-May-23 18:33N 53°46' E 006°33'1111.2
2016-May-23 17:33N 53°43' E 006°15'1110.8
2016-May-23 16:33N 53°39' E 005°58'1010.5
2016-May-23 15:34N 53°36' E 005°41'1010.3
2016-May-23 14:33N 53°33' E 005°24'1010.3
2016-May-23 13:33N 53°30' E 005°08'32 9.8
2016-May-23 10:21N 53°08' E 004°29'910.9
2016-May-23 09:29N 52°60' E 004°22'1210.8
2016-May-23 08:25N 52°50' E 004°12'10212.7
2016-May-23 00:22N 51°34' E 002°21'1012.8
2016-May-22 23:34N 51°25' E 002°12'1212.2
2016-May-22 22:34N 51°14' E 002°04'1111.2
2016-May-22 21:33N 51°08' E 001°49'1010.0
2016-May-22 20:33N 51°00' E 001°38'9 9.3
2016-May-22 19:33N 50°53' E 001°29'9 9.5
2016-May-22 18:33N 50°44' E 001°23'1110.1
2016-May-22 17:27N 50°36' E 001°12'3210.7
2016-May-22 14:25N 50°23' E 000°26'1011.0
2016-May-22 13:33N 50°20' E 000°12'1111.3
2016-May-22 12:34N 50°17' W 000°05'1211.8
2016-May-22 11:33N 50°14' W 000°23'1613.0
2016-May-22 10:21N 50°10' W 000°46'8414.5
2016-May-22 04:33N 49°47' W 002°52'1212.1
2016-May-22 03:33N 49°41' W 003°08'9110.8
2016-May-21 19:12N 48°56' W 005°09'812.0
2016-May-21 18:33N 48°52' W 005°19'  
2016-May-19 14:07N 39°25' W 009°49'611.1
2016-May-19 13:33N 39°19' W 009°50'1111.2
2016-May-19 12:33N 39°08' W 009°50'1111.2
2016-May-19 11:33N 38°57' W 009°50'1111.2
2016-May-19 10:33N 38°45' W 009°50'1110.9
2016-May-19 09:33N 38°35' W 009°47'1110.6
2016-May-19 08:33N 38°24' W 009°45'1010.3
2016-May-19 07:33N 38°14' W 009°42'10 9.9
2016-May-19 06:33N 38°05' W 009°39'19 9.4
2016-May-19 04:31N 37°46' W 009°33'9 8.7
2016-May-19 03:30N 37°38' W 009°31'55 7.9
2016-May-18 20:29N 36°45' W 009°08'2010.0
2016-May-18 18:27N 36°40' W 008°44'910.7
2016-May-18 17:33N 36°37' W 008°33'1111.1
2016-May-18 16:33N 36°34' W 008°19'1010.0
2016-May-18 15:33N 36°31' W 008°07'9 9.2
2016-May-18 14:33N 36°29' W 007°56'10 9.2
2016-May-18 13:27N 36°26' W 007°44'110 9.2
2016-May-18 01:32N 35°59' W 005°33'8 8.5
2016-May-18 00:33N 36°04' W 005°24'7 0.3
2016-May-17 04:28N 36°11' W 005°25'0 0.0
2016-May-16 21:22N 36°11' W 005°25'7 1.8
2016-May-16 17:33N 36°04' W 005°24'262 7.7
2016-May-15 07:21N 38°25' W 010°02'  

Dump ship's entire track history